Time;durP1;ratioP1;P1;durP2;ratioP2;P2;SDS_P1;SDS_P2;PMS_P1;PMS_P2;Temp;Humidity;BMP_temperature;BMP_pressure;BME280_temperature;BME280_humidity;BME280_pressure;Samples;Min_cycle;Max_cycle;Signal;HPM_P1;HPM_P2
2023/04/11 00:01:48;;;;;;;5.18;1.98;;;7.60;99.90;;;;;;5001188;28;20481;-64
2023/04/11 00:04:16;;;;;;;5.40;1.60;;;7.60;99.90;;;;;;4998037;28;20057;-66
2023/04/11 00:06:42;;;;;;;4.57;2.05;;;7.50;99.90;;;;;;4997899;28;20081;-65
2023/04/11 00:09:11;;;;;;;3.97;1.63;;;7.60;99.90;;;;;;5015290;28;20057;-65
2023/04/11 00:11:37;;;;;;;3.90;1.92;;;7.60;99.90;;;;;;5014747;28;20433;-65
2023/04/11 00:14:04;;;;;;;4.25;1.73;;;7.50;99.90;;;;;;5015506;28;20081;-65
2023/04/11 00:16:32;;;;;;;3.65;1.80;;;7.50;99.90;;;;;;5017871;28;20041;-65
2023/04/11 00:18:59;;;;;;;6.10;2.40;;;7.60;99.90;;;;;;5017797;28;20088;-64
2023/04/11 00:21:26;;;;;;;6.30;3.08;;;7.60;99.90;;;;;;5016531;28;20393;-65
2023/04/11 00:23:53;;;;;;;7.50;1.80;;;7.60;99.90;;;;;;5017481;28;20397;-65
2023/04/11 00:26:22;;;;;;;4.80;1.60;;;7.70;99.90;;;;;;5017309;28;20385;-65
2023/04/11 00:28:49;;;;;;;7.57;2.40;;;7.70;99.90;;;;;;5017120;28;20088;-65
2023/04/11 00:31:15;;;;;;;6.78;1.83;;;7.60;99.90;;;;;;5016725;28;20184;-65
2023/04/11 00:33:41;;;;;;;5.38;2.13;;;7.70;99.90;;;;;;5016984;28;20527;-66
2023/04/11 00:36:08;;;;;;;5.53;2.13;;;7.50;99.90;;;;;;5034499;28;20063;-65
2023/04/11 00:38:35;;;;;;;7.68;2.40;;;7.50;99.90;;;;;;5017270;28;20050;-65
2023/04/11 00:41:01;;;;;;;7.18;2.33;;;7.50;99.90;;;;;;5016328;28;20049;-64
2023/04/11 00:43:27;;;;;;;6.47;2.30;;;7.50;99.90;;;;;;5034362;28;20045;-66
2023/04/11 00:45:53;;;;;;;5.32;1.80;;;7.40;99.90;;;;;;5016658;28;20138;-65
2023/04/11 00:48:20;;;;;;;7.00;2.10;;;7.50;99.90;;;;;;5016761;28;20132;-65
2023/04/11 00:50:46;;;;;;;7.45;2.47;;;7.40;99.90;;;;;;5015630;28;20469;-66
2023/04/11 00:53:13;;;;;;;7.68;2.08;;;7.50;99.90;;;;;;5034117;28;20056;-65
2023/04/11 00:55:39;;;;;;;6.53;2.20;;;7.50;99.90;;;;;;5016458;28;20380;-65
2023/04/11 00:58:06;;;;;;;5.97;2.10;;;7.50;99.90;;;;;;5034170;28;20077;-65
2023/04/11 01:00:34;;;;;;;3.53;2.00;;;7.50;99.90;;;;;;5016537;28;20041;-64
2023/04/11 01:03:01;;;;;;;6.88;2.30;;;7.50;99.90;;;;;;5033625;28;20448;-65
2023/04/11 01:05:28;;;;;;;6.75;2.38;;;7.50;99.90;;;;;;5033788;28;20103;-64
2023/04/11 01:07:55;;;;;;;7.30;2.40;;;7.50;99.90;;;;;;5034154;28;20081;-65
2023/04/11 01:10:24;;;;;;;4.32;2.15;;;7.50;99.90;;;;;;5033537;28;20100;-64
2023/04/11 01:12:51;;;;;;;8.85;2.13;;;7.60;99.90;;;;;;5016105;28;20046;-66
2023/04/11 01:15:17;;;;;;;8.80;2.58;;;7.70;99.90;;;;;;5033395;28;20081;-64
2023/04/11 01:17:46;;;;;;;6.80;2.33;;;7.60;99.90;;;;;;5033796;28;20134;-64
2023/04/11 01:20:13;;;;;;;10.40;2.63;;;7.70;99.90;;;;;;5033279;28;20057;-65
2023/04/11 01:22:40;;;;;;;6.28;2.55;;;7.70;99.90;;;;;;5033134;28;20057;-65
2023/04/11 01:25:07;;;;;;;5.45;2.30;;;7.70;99.90;;;;;;5033570;28;20076;-65
2023/04/11 01:27:33;;;;;;;7.88;2.10;;;7.80;99.90;;;;;;5033284;28;20326;-65
2023/04/11 01:30:00;;;;;;;6.10;2.28;;;7.80;99.90;;;;;;5033369;28;20057;-65
2023/04/11 01:32:26;;;;;;;5.30;1.95;;;7.80;99.90;;;;;;4996050;28;20092;-66
2023/04/11 01:34:56;;;;;;;6.90;2.28;;;7.80;99.90;;;;;;5013798;28;20100;-65
2023/04/11 01:37:23;;;;;;;5.75;2.45;;;7.80;99.90;;;;;;5013754;28;20093;-64
2023/04/11 01:39:50;;;;;;;9.52;2.28;;;7.80;99.90;;;;;;4996259;28;20067;-66
2023/04/11 01:42:16;;;;;;;8.23;2.28;;;7.80;99.90;;;;;;5032072;28;20057;-64
2023/04/11 01:44:43;;;;;;;8.80;2.70;;;7.80;99.90;;;;;;5033390;28;20132;-64
2023/04/11 01:47:09;;;;;;;8.98;2.42;;;7.80;99.90;;;;;;5033396;28;20104;-65
2023/04/11 01:49:37;;;;;;;6.85;2.25;;;7.80;99.90;;;;;;5015734;28;20625;-66
2023/04/11 01:52:03;;;;;;;7.72;2.75;;;7.80;99.90;;;;;;5032409;28;20087;-65
2023/04/11 01:54:29;;;;;;;10.50;3.58;;;7.90;99.90;;;;;;5032928;28;20501;-65
2023/04/11 01:56:56;;;;;;;8.07;2.47;;;7.90;99.90;;;;;;5033138;28;20053;-65
2023/04/11 01:59:22;;;;;;;11.48;2.90;;;7.90;99.90;;;;;;5015858;28;20093;-65
2023/04/11 02:01:48;;;;;;;10.32;2.97;;;8.00;99.90;;;;;;5032427;28;20061;-65
2023/04/11 02:04:15;;;;;;;12.10;2.67;;;8.10;99.90;;;;;;5032917;28;20124;-65
2023/04/11 02:06:41;;;;;;;12.82;2.95;;;8.10;99.90;;;;;;5032966;28;20661;-64
2023/04/11 02:09:07;;;;;;;12.75;2.90;;;8.20;99.90;;;;;;5033331;28;20060;-65
2023/04/11 02:11:34;;;;;;;11.55;2.70;;;8.10;99.90;;;;;;5015123;28;20076;-64
2023/04/11 02:14:02;;;;;;;11.73;3.22;;;8.20;99.90;;;;;;5033162;28;20080;-65
2023/04/11 02:16:32;;;;;;;13.18;3.47;;;8.20;99.90;;;;;;5033119;28;20046;-64
2023/04/11 02:18:58;;;;;;;13.50;2.95;;;8.30;99.90;;;;;;5015735;28;20064;-65
2023/04/11 02:21:25;;;;;;;10.43;3.15;;;8.20;99.90;;;;;;5031789;28;20136;-63
2023/04/11 02:23:51;;;;;;;12.77;3.08;;;8.20;99.90;;;;;;5015301;28;20060;-64
2023/04/11 02:26:18;;;;;;;9.05;3.10;;;8.30;99.90;;;;;;5032661;28;20046;-64
2023/04/11 02:28:44;;;;;;;11.13;3.05;;;8.30;99.90;;;;;;5015197;28;20355;-63
2023/04/11 02:31:10;;;;;;;10.63;2.60;;;8.40;99.90;;;;;;5031650;28;20041;-64
2023/04/11 02:33:36;;;;;;;11.25;2.97;;;8.40;99.90;;;;;;5032308;28;20077;-63
2023/04/11 02:36:03;;;;;;;10.70;3.35;;;8.30;99.90;;;;;;5032673;28;20266;-64
2023/04/11 02:38:29;;;;;;;12.70;3.42;;;8.40;99.90;;;;;;5015243;28;20122;-64
2023/04/11 02:40:55;;;;;;;14.40;2.92;;;8.30;99.90;;;;;;5031505;28;20088;-64
2023/04/11 02:43:25;;;;;;;13.32;3.03;;;8.40;99.90;;;;;;5032889;28;20084;-64
2023/04/11 02:45:51;;;;;;;10.90;2.60;;;8.40;99.90;;;;;;5031243;28;20084;-63
2023/04/11 02:48:17;;;;;;;10.73;2.80;;;8.40;99.90;;;;;;5032521;28;20050;-64
2023/04/11 02:50:44;;;;;;;13.98;3.00;;;8.50;99.90;;;;;;5031656;28;20124;-63
2023/04/11 02:53:10;;;;;;;10.55;2.10;;;8.50;99.90;;;;;;5032328;28;20091;-64
2023/04/11 02:55:36;;;;;;;8.32;3.10;;;8.50;99.90;;;;;;5032214;28;20083;-64
2023/04/11 02:58:06;;;;;;;12.05;2.80;;;8.60;99.90;;;;;;5014912;28;20045;-64
2023/04/11 03:00:32;;;;;;;8.40;2.67;;;8.60;99.90;;;;;;4997717;28;20077;-64
2023/04/11 03:02:58;;;;;;;13.73;3.78;;;8.60;99.90;;;;;;5032600;28;20534;-63
2023/04/11 03:05:25;;;;;;;7.30;2.40;;;8.60;99.90;;;;;;5032261;28;20467;-63
2023/04/11 03:07:51;;;;;;;11.50;2.85;;;8.60;99.90;;;;;;5032337;28;20096;-63
2023/04/11 03:10:17;;;;;;;8.18;2.70;;;8.60;99.90;;;;;;5031844;28;20067;-63
2023/04/11 03:12:43;;;;;;;9.35;2.47;;;8.70;99.90;;;;;;5031686;28;20107;-63
2023/04/11 03:15:10;;;;;;;13.35;2.97;;;8.70;99.90;;;;;;5031723;28;20469;-64
2023/04/11 03:17:36;;;;;;;7.38;2.25;;;8.70;99.90;;;;;;5011049;28;20054;-63
2023/04/11 03:20:05;;;;;;;6.75;2.28;;;8.70;99.90;;;;;;5011781;28;20046;-63
2023/04/11 03:22:32;;;;;;;10.10;2.50;;;8.70;99.90;;;;;;5013757;28;20531;-63
2023/04/11 03:24:58;;;;;;;8.70;2.58;;;8.60;99.90;;;;;;5014935;28;20469;-64
2023/04/11 03:27:25;;;;;;;10.07;2.35;;;8.60;99.90;;;;;;5014226;28;20132;-64
2023/04/11 03:29:52;;;;;;;9.05;2.10;;;8.60;99.90;;;;;;5032064;28;20053;-63
2023/04/11 03:32:18;;;;;;;11.93;2.17;;;8.60;99.90;;;;;;5031117;28;20053;-63
2023/04/11 03:34:44;;;;;;;9.05;2.38;;;8.70;99.90;;;;;;5031963;28;20055;-64
2023/04/11 03:37:10;;;;;;;8.50;2.20;;;8.60;99.90;;;;;;5014576;28;20053;-64
2023/04/11 03:39:37;;;;;;;12.00;2.50;;;8.60;99.90;;;;;;5031907;28;20077;-63
2023/04/11 03:42:03;;;;;;;11.35;2.97;;;8.60;99.90;;;;;;5031317;28;20061;-64
2023/04/11 03:44:30;;;;;;;13.20;3.35;;;8.60;99.90;;;;;;5032020;28;20046;-63
2023/04/11 03:46:56;;;;;;;9.80;2.30;;;8.60;99.90;;;;;;5034027;28;20084;-64
2023/04/11 03:49:22;;;;;;;7.97;2.92;;;8.60;99.90;;;;;;5035362;28;20545;-63
2023/04/11 03:51:49;;;;;;;9.40;2.72;;;8.60;99.90;;;;;;5034683;28;20049;-64
2023/04/11 03:54:15;;;;;;;7.05;2.55;;;8.70;99.90;;;;;;5035917;28;20072;-64
2023/04/11 03:56:41;;;;;;;7.60;2.30;;;8.60;99.90;;;;;;5035898;28;20063;-63
2023/04/11 03:59:07;;;;;;;7.18;2.30;;;8.70;99.90;;;;;;5036024;28;20046;-65
2023/04/11 04:01:36;;;;;;;10.88;2.80;;;8.70;99.90;;;;;;5035490;28;20072;-64
2023/04/11 04:04:04;;;;;;;10.00;2.53;;;8.70;99.90;;;;;;5035775;28;20071;-63
2023/04/11 04:06:30;;;;;;;9.15;3.20;;;8.60;99.90;;;;;;5035503;28;20053;-64
2023/04/11 04:08:58;;;;;;;9.60;4.15;;;8.60;99.90;;;;;;5035309;28;20081;-64
2023/04/11 04:11:24;;;;;;;8.25;3.40;;;8.60;99.90;;;;;;5000268;28;20049;-63
2023/04/11 04:13:51;;;;;;;9.32;3.03;;;8.60;99.90;;;;;;5017961;28;20060;-64
2023/04/11 04:16:17;;;;;;;14.20;3.22;;;8.60;99.90;;;;;;5034586;28;20535;-63
2023/04/11 04:18:43;;;;;;;7.78;2.65;;;8.60;99.90;;;;;;5035847;28;20115;-63
2023/04/11 04:21:10;;;;;;;6.53;2.05;;;8.60;99.90;;;;;;5033931;28;20087;-63
2023/04/11 04:23:38;;;;;;;7.03;2.55;;;8.60;99.90;;;;;;5034933;28;20096;-64
2023/04/11 04:26:04;;;;;;;8.93;2.55;;;8.50;99.90;;;;;;5034864;28;20470;-63
2023/04/11 04:28:31;;;;;;;11.77;2.65;;;8.50;99.90;;;;;;5017171;28;20057;-65
2023/04/11 04:30:57;;;;;;;5.25;2.47;;;8.40;99.90;;;;;;5033923;28;20064;-64
2023/04/11 04:33:23;;;;;;;9.30;3.03;;;8.30;99.90;;;;;;5017261;28;20123;-63
2023/04/11 04:35:56;;;;;;;7.80;2.58;;;8.30;99.90;;;;;;5031437;28;20054;-63
2023/04/11 04:38:24;;;;;;;6.63;2.45;;;8.30;99.90;;;;;;5027572;28;20081;-64
2023/04/11 04:40:53;;;;;;;5.70;2.17;;;8.30;99.90;;;;;;5006111;28;20053;-63
2023/04/11 04:43:22;;;;;;;6.65;2.30;;;8.30;99.90;;;;;;5023670;28;20076;-64
2023/04/11 04:45:49;;;;;;;7.32;2.70;;;8.30;99.90;;;;;;5033941;28;20053;-65
2023/04/11 04:48:16;;;;;;;8.30;2.33;;;8.30;99.90;;;;;;5034085;28;20489;-63
2023/04/11 04:50:44;;;;;;;8.95;2.47;;;8.30;99.90;;;;;;5015319;28;20528;-64
2023/04/11 04:53:10;;;;;;;5.65;2.08;;;8.30;99.90;;;;;;5034398;28;20084;-64
2023/04/11 04:55:36;;;;;;;5.20;2.42;;;8.30;99.90;;;;;;5029971;28;20076;-63
2023/04/11 04:58:03;;;;;;;9.35;2.40;;;8.30;99.90;;;;;;5024497;28;20124;-64
2023/04/11 05:00:29;;;;;;;8.90;2.83;;;8.30;99.90;;;;;;5031362;28;20119;-63
2023/04/11 05:02:55;;;;;;;7.55;2.30;;;8.40;99.90;;;;;;5030675;28;20136;-64
2023/04/11 05:05:21;;;;;;;6.78;2.40;;;8.40;99.90;;;;;;5033773;28;20103;-63
2023/04/11 05:07:48;;;;;;;8.02;2.30;;;8.30;99.90;;;;;;5034006;28;20042;-63
2023/04/11 05:10:14;;;;;;;5.55;1.88;;;8.30;99.90;;;;;;5033531;28;20472;-65
2023/04/11 05:12:40;;;;;;;9.38;3.20;;;8.30;99.90;;;;;;5016169;28;20377;-65
2023/04/11 05:15:10;;;;;;;7.85;2.83;;;8.30;99.90;;;;;;5015815;28;20079;-64
2023/04/11 05:17:37;;;;;;;10.15;3.78;;;8.30;99.90;;;;;;5033673;28;20536;-64
2023/04/11 05:20:05;;;;;;;7.28;2.72;;;8.30;99.90;;;;;;5016211;28;20061;-64
2023/04/11 05:22:32;;;;;;;8.57;2.92;;;8.40;99.90;;;;;;5032560;28;20060;-65
2023/04/11 05:24:58;;;;;;;6.90;2.85;;;8.40;99.90;;;;;;5034317;28;20321;-64
2023/04/11 05:27:24;;;;;;;8.50;3.30;;;8.40;99.90;;;;;;5033730;28;20045;-64
2023/04/11 05:29:53;;;;;;;6.78;3.00;;;8.40;99.90;;;;;;5015987;28;20049;-63
2023/04/11 05:32:19;;;;;;;9.98;2.80;;;8.50;99.90;;;;;;5014983;28;20128;-63
2023/04/11 05:34:53;;;;;;;4.63;2.17;;;8.50;99.90;;;;;;5031253;28;20104;-64
2023/04/11 05:37:19;;;;;;;6.05;2.95;;;8.50;99.90;;;;;;5013607;28;20049;-65
2023/04/11 05:39:46;;;;;;;5.82;1.83;;;8.50;99.90;;;;;;5032240;28;20057;-63
2023/04/11 05:42:14;;;;;;;7.68;2.20;;;8.50;99.90;;;;;;5031443;28;20057;-63
2023/04/11 05:44:40;;;;;;;6.78;2.03;;;8.50;99.90;;;;;;5032874;28;20059;-64
2023/04/11 05:47:07;;;;;;;9.18;3.15;;;8.50;99.90;;;;;;5033481;28;20441;-63
2023/04/11 05:49:33;;;;;;;9.13;2.88;;;8.50;99.90;;;;;;5016055;28;20041;-65
2023/04/11 05:51:59;;;;;;;13.68;3.90;;;8.50;99.90;;;;;;5032794;28;20184;-63
2023/04/11 05:54:34;;;;;;;9.57;3.15;;;8.50;99.90;;;;;;5015222;28;20049;-63
2023/04/11 05:57:01;;;;;;;9.63;3.50;;;8.60;99.90;;;;;;5015434;28;20429;-63
2023/04/11 05:59:31;;;;;;;9.18;2.88;;;8.50;99.90;;;;;;5015739;28;20115;-64
2023/04/11 06:02:00;;;;;;;10.10;3.22;;;8.60;99.90;;;;;;5025607;28;20482;-64
2023/04/11 06:04:27;;;;;;;9.18;3.25;;;8.50;99.90;;;;;;5015658;28;20092;-64
2023/04/11 06:06:54;;;;;;;6.78;2.97;;;8.50;99.90;;;;;;5015261;28;20158;-63
2023/04/11 06:09:20;;;;;;;9.50;3.03;;;8.60;99.90;;;;;;5032218;28;20077;-64
2023/04/11 06:11:46;;;;;;;12.27;3.53;;;8.60;99.90;;;;;;5032115;28;20076;-63
2023/04/11 06:14:13;;;;;;;8.48;2.60;;;8.70;99.90;;;;;;5032570;28;20124;-63
2023/04/11 06:16:40;;;;;;;11.82;2.85;;;8.60;99.90;;;;;;5015290;28;20058;-64
2023/04/11 06:19:06;;;;;;;13.85;3.25;;;8.70;99.90;;;;;;5014924;28;20049;-63
2023/04/11 06:21:32;;;;;;;11.65;3.33;;;8.70;99.90;;;;;;5010512;28;20115;-63
2023/04/11 06:24:07;;;;;;;9.15;2.28;;;8.70;99.90;;;;;;5011786;28;20065;-64
2023/04/11 06:26:33;;;;;;;13.10;3.08;;;8.80;99.90;;;;;;4979992;28;20371;-64
2023/04/11 06:29:05;;;;;;;10.77;2.65;;;8.70;99.90;;;;;;5011964;28;20077;-64
2023/04/11 06:31:32;;;;;;;9.38;2.50;;;8.80;99.90;;;;;;5022901;28;20050;-64
2023/04/11 06:34:00;;;;;;;6.72;2.60;;;8.80;99.90;;;;;;5015636;28;20081;-64
2023/04/11 06:36:26;;;;;;;12.55;3.45;;;8.80;99.90;;;;;;5032656;28;20123;-63
2023/04/11 06:38:52;;;;;;;6.68;2.30;;;8.80;99.90;;;;;;5015299;28;20052;-64
2023/04/11 06:41:19;;;;;;;7.72;2.28;;;8.80;99.90;;;;;;5031485;28;20484;-65
2023/04/11 06:43:45;;;;;;;7.40;2.40;;;8.90;99.90;;;;;;5032682;28;20076;-63
2023/04/11 06:46:11;;;;;;;8.60;2.58;;;8.90;99.90;;;;;;5014923;28;20053;-63
2023/04/11 06:48:38;;;;;;;10.25;2.53;;;8.80;99.90;;;;;;5032588;28;20046;-64
2023/04/11 06:51:07;;;;;;;11.55;3.08;;;8.90;99.90;;;;;;5013424;28;20128;-63
2023/04/11 06:53:33;;;;;;;7.82;1.95;;;8.90;99.90;;;;;;5032517;28;20124;-63
2023/04/11 06:56:00;;;;;;;10.05;2.35;;;8.90;99.90;;;;;;5032827;28;20092;-64
2023/04/11 06:58:26;;;;;;;8.70;3.03;;;9.00;99.90;;;;;;5032501;28;20076;-63
2023/04/11 07:00:52;;;;;;;10.02;2.13;;;9.00;99.90;;;;;;4997710;28;20080;-63
2023/04/11 07:03:19;;;;;;;7.70;1.90;;;9.00;99.90;;;;;;5032199;28;20042;-65
2023/04/11 07:05:46;;;;;;;8.30;2.92;;;9.00;99.90;;;;;;5032459;28;20140;-64
2023/04/11 07:08:12;;;;;;;9.32;2.15;;;9.00;99.90;;;;;;5032451;28;20088;-64
2023/04/11 07:10:38;;;;;;;6.63;2.42;;;9.00;99.90;;;;;;5031528;28;20048;-63
2023/04/11 07:13:05;;;;;;;9.07;2.15;;;9.10;99.90;;;;;;5014928;28;20061;-64
2023/04/11 07:15:31;;;;;;;9.73;2.45;;;9.10;99.90;;;;;;5014603;28;20085;-63
2023/04/11 07:17:57;;;;;;;8.85;2.55;;;9.10;99.90;;;;;;5014745;28;20437;-63
2023/04/11 07:20:23;;;;;;;6.40;2.25;;;9.20;99.90;;;;;;5033014;28;20096;-63
2023/04/11 07:22:50;;;;;;;9.73;2.67;;;9.20;99.90;;;;;;5018473;28;20531;-63
2023/04/11 07:25:16;;;;;;;9.10;2.58;;;9.20;99.90;;;;;;5019006;28;20100;-62
2023/04/11 07:27:45;;;;;;;10.30;2.60;;;9.20;99.90;;;;;;5035764;28;20133;-63
2023/04/11 07:30:12;;;;;;;7.93;2.85;;;9.30;99.90;;;;;;5035001;28;20132;-63
2023/04/11 07:32:38;;;;;;;7.63;2.03;;;9.30;99.90;;;;;;5017159;28;20096;-63
2023/04/11 07:35:05;;;;;;;9.82;2.55;;;9.30;99.90;;;;;;5017803;28;20049;-62
2023/04/11 07:37:31;;;;;;;7.72;2.13;;;9.30;99.90;;;;;;5035582;28;20477;-62
2023/04/11 07:39:58;;;;;;;6.60;2.38;;;9.20;99.90;;;;;;5036113;28;20057;-63
2023/04/11 07:42:24;;;;;;;9.15;3.30;;;9.30;99.90;;;;;;5035609;28;20132;-62
2023/04/11 07:44:50;;;;;;;10.48;3.03;;;9.30;99.90;;;;;;5018936;28;20069;-64
2023/04/11 07:47:16;;;;;;;10.45;2.80;;;9.30;99.90;;;;;;5035892;28;20496;-62
2023/04/11 07:49:42;;;;;;;9.32;3.17;;;9.40;99.90;;;;;;5035705;28;20045;-63
2023/04/11 07:52:09;;;;;;;11.55;3.53;;;9.50;99.90;;;;;;5034927;28;20045;-63
2023/04/11 07:54:35;;;;;;;10.68;3.15;;;9.60;99.90;;;;;;5035311;28;20124;-63
2023/04/11 07:57:02;;;;;;;6.88;3.05;;;9.80;99.90;;;;;;5035584;28;20060;-64
2023/04/11 07:59:28;;;;;;;10.85;2.88;;;9.80;99.90;;;;;;5035386;28;20092;-63
2023/04/11 08:02:01;;;;;;;9.38;2.10;;;9.90;99.90;;;;;;5034163;28;20484;-63
2023/04/11 08:04:32;;;;;;;9.32;3.35;;;10.10;99.90;;;;;;5035303;28;20073;-64
2023/04/11 08:06:58;;;;;;;9.90;2.53;;;10.20;99.90;;;;;;5035043;28;20083;-64
2023/04/11 08:09:26;;;;;;;10.20;2.42;;;10.20;99.90;;;;;;5034788;28;20575;-63
2023/04/11 08:11:53;;;;;;;9.55;2.88;;;10.10;99.90;;;;;;5016872;28;20049;-64
2023/04/11 08:14:19;;;;;;;15.02;4.65;;;10.20;99.90;;;;;;5001112;28;20092;-64
2023/04/11 08:16:45;;;;;;;10.18;3.20;;;10.30;99.90;;;;;;5034883;28;20425;-63
2023/04/11 08:19:12;;;;;;;11.57;4.18;;;10.40;99.90;;;;;;5034768;28;20085;-64
2023/04/11 08:21:38;;;;;;;14.50;2.58;;;10.50;99.90;;;;;;5034392;28;20103;-64
2023/04/11 08:24:05;;;;;;;9.15;2.40;;;10.40;99.90;;;;;;5017485;28;20088;-64
2023/04/11 08:26:31;;;;;;;6.57;2.15;;;10.60;99.90;;;;;;5034906;28;20053;-65
2023/04/11 08:28:57;;;;;;;8.40;2.40;;;10.50;99.90;;;;;;5034929;28;20115;-64
2023/04/11 08:31:23;;;;;;;11.77;2.80;;;10.40;99.90;;;;;;5033182;28;20080;-64
2023/04/11 08:33:50;;;;;;;6.93;2.22;;;10.20;99.90;;;;;;5034565;28;20045;-65
2023/04/11 08:36:16;;;;;;;9.57;2.40;;;10.10;99.90;;;;;;5033504;28;20084;-64
2023/04/11 08:38:42;;;;;;;13.73;2.30;;;10.00;99.90;;;;;;5034532;28;20136;-65
2023/04/11 08:41:10;;;;;;;9.52;2.45;;;9.90;99.90;;;;;;5033917;28;20152;-64
2023/04/11 08:43:39;;;;;;;11.88;2.92;;;9.80;99.90;;;;;;5034392;28;20080;-65
2023/04/11 08:46:10;;;;;;;6.60;2.53;;;9.70;99.90;;;;;;5033213;28;20145;-64
2023/04/11 08:48:37;;;;;;;6.82;2.35;;;9.40;99.90;;;;;;5034448;28;20338;-64
2023/04/11 08:51:04;;;;;;;9.70;2.58;;;9.30;99.90;;;;;;5032111;28;20080;-64
2023/04/11 08:53:35;;;;;;;13.65;3.33;;;9.10;99.90;;;;;;5016905;28;20071;-64
2023/04/11 08:56:02;;;;;;;6.68;2.30;;;8.60;99.90;;;;;;5017279;28;20077;-64
2023/04/11 08:58:28;;;;;;;9.15;2.13;;;8.20;99.90;;;;;;5016811;28;20104;-64
2023/04/11 09:00:54;;;;;;;6.85;2.25;;;8.00;99.90;;;;;;5033582;28;20084;-65
2023/04/11 09:03:21;;;;;;;9.00;2.97;;;8.10;99.90;;;;;;5016818;28;20550;-64
2023/04/11 09:05:47;;;;;;;9.38;2.67;;;8.40;99.90;;;;;;5016219;28;20080;-64
2023/04/11 09:08:15;;;;;;;9.52;3.67;;;8.70;99.90;;;;;;5034091;28;20041;-64
2023/04/11 09:10:46;;;;;;;11.27;2.88;;;8.90;99.90;;;;;;5015390;28;20099;-65
2023/04/11 09:13:30;;;;;;;14.52;3.72;;;8.90;99.90;;;;;;5016326;28;20060;-64
2023/04/11 09:16:11;;;;;;;9.35;3.25;;;8.80;99.90;;;;;;5033788;28;20072;-65
2023/04/11 09:18:42;;;;;;;12.68;3.53;;;8.50;99.90;;;;;;5034019;28;20084;-64
2023/04/11 09:21:13;;;;;;;13.48;2.97;;;8.50;99.90;;;;;;5015752;28;20057;-65
2023/04/11 09:23:40;;;;;;;12.00;2.55;;;8.50;99.90;;;;;;5016254;28;20067;-65
2023/04/11 09:26:08;;;;;;;8.98;3.28;;;8.70;99.90;;;;;;5016297;28;20095;-64
2023/04/11 09:28:51;;;;;;;9.32;3.03;;;8.90;99.90;;;;;;5032411;28;20081;-65
2023/04/11 09:31:18;;;;;;;9.55;2.80;;;9.00;99.90;;;;;;5032581;28;20322;-65
2023/04/11 09:33:53;;;;;;;9.50;2.70;;;9.10;99.90;;;;;;5016612;28;20049;-65
2023/04/11 09:36:22;;;;;;;12.32;4.85;;;9.20;99.90;;;;;;5016769;28;20430;-64
2023/04/11 09:38:48;;;;;;;13.32;4.43;;;9.50;99.90;;;;;;5032499;28;20057;-65
2023/04/11 09:41:27;;;;;;;10.98;3.45;;;9.50;99.90;;;;;;5015381;28;20541;-64
2023/04/11 09:43:54;;;;;;;10.27;2.85;;;9.50;99.90;;;;;;5032554;28;20428;-64
2023/04/11 09:46:20;;;;;;;7.60;2.45;;;9.70;99.90;;;;;;5016217;28;20075;-64
2023/04/11 09:48:48;;;;;;;9.20;2.95;;;9.80;99.90;;;;;;5033187;28;20092;-64
2023/04/11 09:51:16;;;;;;;8.60;2.72;;;9.90;99.90;;;;;;5014643;28;20108;-64
2023/04/11 09:53:43;;;;;;;8.63;2.80;;;9.90;99.90;;;;;;5015544;28;20054;-64
2023/04/11 09:56:10;;;;;;;7.57;2.47;;;10.00;99.90;;;;;;5033187;28;20056;-64
2023/04/11 09:58:37;;;;;;;8.18;2.60;;;10.20;99.90;;;;;;5015831;28;20103;-64
2023/04/11 10:01:07;;;;;;;4.88;1.73;;;10.30;99.90;;;;;;5032322;28;20087;-62
2023/04/11 10:03:38;;;;;;;11.95;4.45;;;10.30;99.90;;;;;;5015692;28;20079;-64
2023/04/11 10:06:21;;;;;;;15.77;5.25;;;10.50;99.90;;;;;;5015713;28;20140;-63
2023/04/11 10:08:50;;;;;;;9.95;3.10;;;10.50;99.90;;;;;;5033144;28;20057;-63
2023/04/11 10:11:19;;;;;;;8.68;2.65;;;10.60;99.90;;;;;;5014501;28;20144;-64
2023/04/11 10:13:46;;;;;;;6.45;2.63;;;10.90;99.90;;;;;;5033216;28;20446;-64
2023/04/11 10:16:19;;;;;;;7.03;2.40;;;11.10;99.90;;;;;;5032468;28;20140;-63
2023/04/11 10:18:54;;;;;;;7.68;2.53;;;11.10;99.90;;;;;;5032782;28;20056;-63
2023/04/11 10:21:31;;;;;;;8.82;3.00;;;10.90;99.90;;;;;;5032144;28;20087;-64
2023/04/11 10:24:19;;;;;;;7.82;2.50;;;10.90;99.90;;;;;;5032897;28;20068;-63
2023/04/11 10:26:56;;;;;;;10.23;2.58;;;11.10;99.90;;;;;;5032855;28;20050;-63
2023/04/11 10:29:29;;;;;;;10.25;2.67;;;11.30;99.90;;;;;;5032585;28;20546;-64
2023/04/11 10:32:09;;;;;;;8.20;2.38;;;11.40;99.90;;;;;;5031791;28;20180;-64
2023/04/11 10:34:37;;;;;;;7.65;2.60;;;11.20;99.90;;;;;;5015382;28;20057;-64
2023/04/11 10:37:08;;;;;;;12.10;2.83;;;11.10;99.90;;;;;;5032646;28;20081;-64
2023/04/11 10:39:47;;;;;;;9.00;3.00;;;11.10;99.90;;;;;;5015118;28;20057;-64
2023/04/11 10:42:27;;;;;;;7.43;2.88;;;11.00;99.90;;;;;;5032014;28;20385;-64
2023/04/11 10:45:16;;;;;;;8.43;2.75;;;11.00;99.90;;;;;;5015014;28;20085;-63
2023/04/11 10:47:58;;;;;;;;;;;11.20;99.90;;;;;;5015423;28;20067;-64
2023/04/11 10:50:27;;;;;;;11.32;3.13;;;11.40;99.90;;;;;;4998496;28;19921;-65
2023/04/11 10:52:58;;;;;;;10.13;3.22;;;11.50;99.90;;;;;;5032051;28;20053;-63
2023/04/11 10:55:27;;;;;;;13.38;4.82;;;11.70;99.90;;;;;;5033838;28;20129;-64
2023/04/11 10:58:06;;;;;;;8.13;2.17;;;11.80;99.90;;;;;;5035401;28;20057;-64
2023/04/11 11:00:51;;;;;;;9.15;2.42;;;12.00;99.90;;;;;;5018696;28;20136;-65
2023/04/11 11:03:26;;;;;;;11.98;3.00;;;11.90;99.90;;;;;;5018789;28;20461;-64
2023/04/11 11:06:04;;;;;;;10.02;4.13;;;11.60;99.90;;;;;;5036299;28;20059;-65
2023/04/11 11:08:41;;;;;;;10.52;3.15;;;11.40;99.90;;;;;;5036533;28;20124;-63
2023/04/11 11:11:09;;;;;;;;;;;11.40;99.90;;;;;;5036098;28;20045;-64
2023/04/11 11:13:39;;;;;;;10.40;2.58;;;11.60;99.90;;;;;;5036072;28;20269;-64
2023/04/11 11:16:06;;;;;;;9.63;3.03;;;11.40;99.90;;;;;;5035858;28;20049;-65
2023/04/11 11:18:33;;;;;;;8.43;2.88;;;11.50;99.90;;;;;;5036454;28;20053;-64
2023/04/11 11:21:00;;;;;;;6.80;2.22;;;11.50;99.90;;;;;;5032686;28;20054;-64
2023/04/11 11:23:26;;;;;;;9.05;2.92;;;11.50;99.90;;;;;;5016782;28;20045;-64
2023/04/11 11:25:54;;;;;;;7.68;2.50;;;11.80;99.90;;;;;;5016608;28;20092;-64
2023/04/11 11:28:20;;;;;;;7.93;2.90;;;11.90;99.90;;;;;;5016172;28;20125;-64
2023/04/11 11:30:54;;;;;;;9.40;3.20;;;12.10;99.90;;;;;;5017308;28;20249;-64
2023/04/11 11:33:25;;;;;;;10.63;3.70;;;12.00;99.90;;;;;;5035793;28;20124;-65
2023/04/11 11:36:03;;;;;;;6.82;2.40;;;11.80;99.90;;;;;;5035949;28;20056;-65
2023/04/11 11:38:30;;;;;;;8.00;3.40;;;11.80;99.90;;;;;;5035856;28;20049;-64
2023/04/11 11:40:57;;;;;;;7.03;2.42;;;11.80;99.90;;;;;;5032328;28;20124;-65
2023/04/11 11:43:28;;;;;;;10.00;2.83;;;12.00;99.90;;;;;;5016079;28;20050;-65
2023/04/11 11:46:16;;;;;;;6.53;2.03;;;12.20;99.90;;;;;;5015955;28;20050;-63
2023/04/11 11:48:56;;;;;;;6.07;2.03;;;12.50;99.90;;;;;;5031077;28;20088;-65
2023/04/11 11:51:23;;;;;;;7.63;3.03;;;12.60;99.90;;;;;;5020978;28;20525;-65
2023/04/11 11:54:09;;;;;;;7.25;2.60;;;12.50;99.90;;;;;;5034624;28;20111;-64
2023/04/11 11:56:36;;;;;;;8.40;2.25;;;12.60;99.90;;;;;;5018102;28;20053;-65
2023/04/11 11:59:04;;;;;;;6.88;2.10;;;12.50;99.90;;;;;;5035367;28;20055;-64
2023/04/11 12:01:35;;;;;;;7.60;2.38;;;12.20;99.90;;;;;;5029775;28;20081;-62
2023/04/11 12:04:05;;;;;;;8.60;2.53;;;12.30;99.90;;;;;;5015411;28;20510;-64
2023/04/11 12:06:31;;;;;;;8.55;2.63;;;12.40;99.90;;;;;;5029715;28;20057;-63
2023/04/11 12:09:08;;;;;;;6.25;2.08;;;12.30;99.90;;;;;;5014159;28;20457;-62
2023/04/11 12:11:39;;;;;;;9.88;2.10;;;12.10;99.90;;;;;;5016762;28;20049;-63
2023/04/11 12:14:06;;;;;;;6.78;2.20;;;12.20;99.90;;;;;;5034383;28;20060;-64
2023/04/11 12:16:32;;;;;;;8.07;2.03;;;12.40;99.90;;;;;;5035410;28;20200;-63
2023/04/11 12:19:01;;;;;;;5.85;2.28;;;12.50;99.90;;;;;;5035180;28;20457;-62
2023/04/11 12:21:28;;;;;;;6.55;2.08;;;12.50;99.90;;;;;;5013244;28;20446;-64
2023/04/11 12:23:54;;;;;;;4.35;1.90;;;12.30;99.90;;;;;;5015516;28;20060;-62
2023/04/11 12:26:21;;;;;;;9.20;2.22;;;12.20;99.90;;;;;;5014861;28;20385;-63
2023/04/11 12:28:48;;;;;;;6.13;2.00;;;12.20;99.90;;;;;;5015052;28;20073;-63
2023/04/11 12:31:16;;;;;;;6.18;2.30;;;12.50;99.90;;;;;;5018927;28;20512;-63
2023/04/11 12:33:43;;;;;;;9.75;2.00;;;12.50;99.90;;;;;;5017276;28;20141;-63
2023/04/11 12:36:10;;;;;;;7.20;1.95;;;12.40;99.90;;;;;;5034539;28;20055;-63
2023/04/11 12:38:36;;;;;;;7.55;2.22;;;12.40;99.90;;;;;;5034666;28;20053;-62
2023/04/11 12:41:03;;;;;;;7.50;2.20;;;12.30;99.90;;;;;;5013697;28;20104;-64
2023/04/11 12:43:29;;;;;;;9.05;2.47;;;12.30;99.90;;;;;;5014299;28;20090;-62
2023/04/11 12:45:55;;;;;;;17.42;4.03;;;12.40;99.90;;;;;;5013553;28;20050;-64
2023/04/11 12:48:21;;;;;;;7.75;2.25;;;12.30;99.90;;;;;;5014475;28;20056;-63
2023/04/11 12:50:48;;;;;;;9.07;2.42;;;12.50;99.90;;;;;;5015023;28;20125;-63
2023/04/11 12:53:14;;;;;;;7.03;2.25;;;12.30;99.90;;;;;;5034111;28;20355;-64
2023/04/11 12:55:40;;;;;;;10.35;2.55;;;12.40;99.90;;;;;;5034617;28;20096;-63
2023/04/11 12:58:08;;;;;;;11.20;2.70;;;12.50;99.90;;;;;;5034083;28;20524;-64